Terminal Aerodrome Forecast
Issued by NWS Twin Cities, MN

Home | Current Version | Previous Version | Text Only | Print | Product List | Glossary On
Versions: 1 2 3 4 5 6 7 8 9 10 11 12 13 14 15 16
000
FTUS43 KMPX 172300 RRA
TAFEAU
TAF
KEAU 172339Z 1800/1824 33010KT P6SM BKN035
     FM180400 34007KT P6SM OVC020
     FM181500 35008KT P6SM SCT020
     FM182200 VRB03KT P6SM SKC=

USA.gov is the U.S. government's official web portal to all federal, state and local government web resources and services.